createdAt,value
2023-05-14T00:00:22.227Z,96064.78
2023-05-14T00:01:27.172Z,96065.69
2023-05-14T00:02:31.970Z,96063.09
2023-05-14T00:03:35.415Z,96065.69
2023-05-14T00:04:40.239Z,96061.41
2023-05-14T00:05:42.428Z,96062.34
2023-05-14T00:06:47.148Z,96065.84
2023-05-14T00:07:49.302Z,96062.19
2023-05-14T00:08:53.920Z,96058.81
2023-05-14T00:09:56.051Z,96059.75
2023-05-14T00:11:00.710Z,96051.19
2023-05-14T00:12:02.860Z,96053.78
2023-05-14T00:13:07.540Z,96050.38
2023-05-14T00:14:09.615Z,96053.72
2023-05-14T00:15:14.316Z,96048.53
2023-05-14T00:16:16.481Z,96049.38
2023-05-14T00:17:23.943Z,96051.19
2023-05-14T00:18:26.119Z,96041.81
2023-05-14T00:19:30.952Z,96047.09
2023-05-14T00:20:33.052Z,96048.03
2023-05-14T00:21:38.684Z,96047.34
2023-05-14T00:22:41.111Z,96043.13
2023-05-14T00:23:45.794Z,96042.41
2023-05-14T00:24:48.009Z,96049.41
2023-05-14T00:25:52.641Z,96043.47
2023-05-14T00:26:57.291Z,96043.41
2023-05-14T00:27:59.602Z,96046.81
2023-05-14T00:29:04.454Z,96039.97
2023-05-14T00:30:07.519Z,96040.72
2023-05-14T00:31:12.420Z,96039.81
2023-05-14T00:32:14.531Z,96038.94
2023-05-14T00:33:21.837Z,96036.28
2023-05-14T00:34:24.000Z,96039.81
2023-05-14T00:35:28.661Z,96036.44
2023-05-14T00:36:31.430Z,96037.13
2023-05-14T00:37:36.603Z,96039.81
2023-05-14T00:38:38.659Z,96027.75
2023-05-14T00:39:43.328Z,96038.72
2023-05-14T00:40:51.255Z,96030.19
2023-05-14T00:41:55.968Z,96026.84
2023-05-14T00:42:58.029Z,96033.91
2023-05-14T00:44:02.766Z,96025.25
2023-05-14T00:45:07.110Z,96025.47
2023-05-14T00:46:12.712Z,96032.25
2023-05-14T00:47:15.125Z,96026.25
2023-05-14T00:48:23.011Z,96029.72
2023-05-14T00:49:25.518Z,96029.72
2023-05-14T00:50:30.353Z,96026.41
2023-05-14T00:51:32.368Z,96032.47
2023-05-14T00:52:37.624Z,96032.63
2023-05-14T00:53:40.172Z,96039.59
2023-05-14T00:54:45.335Z,96037.91
2023-05-14T00:55:48.982Z,96032.72
2023-05-14T00:56:54.007Z,96031.91
2023-05-14T00:57:59.313Z,96036.38
2023-05-14T00:59:04.315Z,96030.53
2023-05-14T01:00:09.072Z,96023.81
2023-05-14T01:01:15.496Z,96027.31
2023-05-14T01:02:17.586Z,96030.06
2023-05-14T01:03:25.026Z,96029.28
2023-05-14T01:04:27.372Z,96032.03
2023-05-14T01:05:38.845Z,96022.81
2023-05-14T01:06:52.191Z,96024.63
2023-05-14T01:08:02.013Z,96029.09
2023-05-14T01:09:11.914Z,96020.69
2023-05-14T01:10:24.543Z,96017.47
2023-05-14T01:11:30.667Z,96020.41
2023-05-14T01:12:41.255Z,96019.72
2023-05-14T01:13:53.959Z,96023.31
2023-05-14T01:15:05.360Z,96024.38
2023-05-14T01:16:12.501Z,96015.84
2023-05-14T01:17:20.206Z,96023.66
2023-05-14T01:18:26.463Z,96018.59
2023-05-14T01:19:40.414Z,96022.97
2023-05-14T01:20:43.113Z,96025.56
2023-05-14T01:21:50.394Z,96025.56
2023-05-14T01:22:52.544Z,96020.34
2023-05-14T01:23:57.187Z,96020.34
2023-05-14T01:25:01.825Z,96022.84
2023-05-14T01:26:04.395Z,96022.69
2023-05-14T01:27:14.488Z,96026.97
2023-05-14T01:28:18.489Z,96032.06
2023-05-14T01:29:26.395Z,96027.81
2023-05-14T01:30:32.182Z,96027.72
2023-05-14T01:31:41.922Z,96035.41
2023-05-14T01:32:47.703Z,96027.59
2023-05-14T01:33:52.798Z,96027.44
2023-05-14T01:34:58.806Z,96029.78
2023-05-14T01:36:04.931Z,96033.97
2023-05-14T01:37:12.154Z,96027.91
2023-05-14T01:38:20.931Z,96027.75
2023-05-14T01:39:29.036Z,96031.06
2023-05-14T01:40:35.762Z,96033.44
2023-05-14T01:41:39.602Z,96028.16
2023-05-14T01:42:45.062Z,96027.31
2023-05-14T01:43:47.819Z,96028.25
2023-05-14T01:44:52.706Z,96029.97
2023-05-14T01:45:55.609Z,96028.16
2023-05-14T01:47:00.364Z,96027.38
2023-05-14T01:48:02.901Z,96019.63
2023-05-14T01:49:07.600Z,96028.09
2023-05-14T01:50:11.308Z,96029.00
2023-05-14T01:51:16.759Z,96025.66
2023-05-14T01:52:21.553Z,96021.22
2023-05-14T01:53:26.349Z,96025.34
2023-05-14T01:54:28.433Z,96021.84
2023-05-14T01:55:33.245Z,96025.97
2023-05-14T01:56:35.535Z,96021.69
2023-05-14T01:57:40.231Z,96019.91
2023-05-14T01:58:42.368Z,96018.25
2023-05-14T01:59:47.048Z,96020.91
2023-05-14T02:00:49.185Z,96026.19
2023-05-14T02:01:54.186Z,96019.41
2023-05-14T02:02:56.521Z,96021.00
2023-05-14T02:04:01.572Z,96017.59
2023-05-14T02:05:04.938Z,96017.72
2023-05-14T02:06:11.853Z,96021.22
2023-05-14T02:07:13.921Z,96015.88
2023-05-14T02:08:21.421Z,96017.59
2023-05-14T02:09:23.578Z,96014.84
2023-05-14T02:10:28.222Z,96014.00
2023-05-14T02:11:30.260Z,96019.75
2023-05-14T02:12:35.038Z,96017.25
2023-05-14T02:13:37.151Z,96017.94
2023-05-14T02:14:41.838Z,96014.38
2023-05-14T02:15:44.099Z,96010.94
2023-05-14T02:16:48.888Z,96012.69
2023-05-14T02:17:50.922Z,96010.00
2023-05-14T02:18:55.726Z,96016.97
2023-05-14T02:19:57.978Z,96011.78
2023-05-14T02:21:02.666Z,96011.94
2023-05-14T02:22:05.142Z,96018.72
2023-05-14T02:23:10.063Z,96010.00
2023-05-14T02:24:17.501Z,96007.44
2023-05-14T02:25:19.763Z,96007.44
2023-05-14T02:26:24.836Z,96010.09
2023-05-14T02:27:26.926Z,96007.44
2023-05-14T02:28:31.589Z,96017.88
2023-05-14T02:29:33.678Z,96010.09
2023-05-14T02:30:38.288Z,96012.59
2023-05-14T02:31:40.565Z,96011.63
2023-05-14T02:32:45.372Z,96015.81
2023-05-14T02:33:50.051Z,96011.56
2023-05-14T02:34:52.176Z,96009.78
2023-05-14T02:35:56.935Z,96015.91
2023-05-14T02:36:59.011Z,96012.38
2023-05-14T02:38:04.180Z,96013.16
2023-05-14T02:39:06.243Z,96007.97
2023-05-14T02:40:14.419Z,96014.16
2023-05-14T02:41:19.120Z,96008.03
2023-05-14T02:42:21.231Z,96008.03
2023-05-14T02:43:26.067Z,96011.31
2023-05-14T02:44:28.162Z,96012.22
2023-05-14T02:45:32.865Z,96006.28
2023-05-14T02:46:35.462Z,96007.97
2023-05-14T02:47:40.237Z,96013.97
2023-05-14T02:48:42.475Z,96015.75
2023-05-14T02:49:47.124Z,96002.69
2023-05-14T02:50:50.030Z,96005.28
2023-05-14T02:51:54.712Z,96011.47
2023-05-14T02:52:56.866Z,96006.44
2023-05-14T02:54:01.481Z,96014.16
2023-05-14T02:55:03.699Z,96011.63
2023-05-14T02:56:11.062Z,96013.44
2023-05-14T02:57:13.741Z,96004.78
2023-05-14T02:58:19.293Z,96009.78
2023-05-14T02:59:28.398Z,96004.38
2023-05-14T03:00:33.555Z,96009.41
2023-05-14T03:01:36.250Z,96010.16
2023-05-14T03:02:43.729Z,96015.28
2023-05-14T03:03:46.612Z,96015.28
2023-05-14T03:04:51.399Z,96011.94
2023-05-14T03:05:53.724Z,96006.59
2023-05-14T03:06:58.449Z,96014.16
2023-05-14T03:08:01.161Z,96009.19
2023-05-14T03:09:06.137Z,96010.16
2023-05-14T03:10:09.346Z,96009.41
2023-05-14T03:11:16.632Z,96013.69
2023-05-14T03:12:18.810Z,96012.09
2023-05-14T03:13:23.511Z,96007.84
2023-05-14T03:14:25.586Z,96005.25
2023-05-14T03:15:30.276Z,96008.81
2023-05-14T03:16:32.376Z,96014.75
2023-05-14T03:17:37.387Z,96012.84
2023-05-14T03:18:39.639Z,96012.84
2023-05-14T03:19:44.297Z,96009.41
2023-05-14T03:20:46.469Z,96015.44
2023-05-14T03:21:51.163Z,96018.19
2023-05-14T03:22:53.331Z,96009.50
2023-05-14T03:23:57.999Z,96005.47
2023-05-14T03:25:00.145Z,96011.47
2023-05-14T03:26:05.153Z,96009.19
2023-05-14T03:27:09.790Z,96009.19
2023-05-14T03:28:14.470Z,96010.84
2023-05-14T03:29:18.282Z,96020.59
2023-05-14T03:30:23.115Z,96014.38
2023-05-14T03:31:28.236Z,96011.78
2023-05-14T03:32:33.104Z,96008.44
2023-05-14T03:33:35.267Z,96010.94
2023-05-14T03:34:40.063Z,96009.34
2023-05-14T03:35:42.396Z,96010.25
2023-05-14T03:36:47.062Z,96006.81
2023-05-14T03:37:49.629Z,96012.00
2023-05-14T03:38:54.280Z,96010.25
2023-05-14T03:39:56.404Z,96009.34
2023-05-14T03:41:01.199Z,96014.38
2023-05-14T03:42:03.734Z,96012.72
2023-05-14T03:43:11.514Z,96010.84
2023-05-14T03:44:13.960Z,96013.44
2023-05-14T03:45:18.635Z,96012.72
2023-05-14T03:46:20.710Z,96010.84
2023-05-14T03:47:25.397Z,96010.03
2023-05-14T03:48:27.610Z,96009.09
2023-05-14T03:49:32.433Z,96014.22
2023-05-14T03:50:34.551Z,96008.06
2023-05-14T03:51:39.179Z,96013.38
2023-05-14T03:52:41.474Z,96010.03
2023-05-14T03:53:46.178Z,96009.03
2023-05-14T03:54:48.332Z,96009.81
2023-05-14T03:55:52.984Z,96011.41
2023-05-14T03:56:55.071Z,96010.53
2023-05-14T03:57:59.856Z,96008.88
2023-05-14T03:59:04.545Z,96002.66
2023-05-14T04:00:10.745Z,96000.06
2023-05-14T04:01:12.985Z,96007.84
2023-05-14T04:02:17.807Z,96010.44
2023-05-14T04:03:20.061Z,96012.09
2023-05-14T04:04:24.788Z,96010.44
2023-05-14T04:05:26.915Z,96008.72
2023-05-14T04:06:31.607Z,96012.25
2023-05-14T04:07:33.727Z,96007.38
2023-05-14T04:08:38.503Z,96005.69
2023-05-14T04:09:40.593Z,96005.47
2023-05-14T04:10:46.513Z,96006.22
2023-05-14T04:11:48.609Z,96013.91
2023-05-14T04:12:53.476Z,96004.38
2023-05-14T04:13:55.737Z,96004.47
2023-05-14T04:15:03.008Z,96008.13
2023-05-14T04:16:06.112Z,96004.47
2023-05-14T04:17:10.821Z,96010.63
2023-05-14T04:18:13.076Z,95999.44
2023-05-14T04:19:18.271Z,96007.22
2023-05-14T04:20:20.619Z,96002.03
2023-05-14T04:21:25.411Z,96007.97
2023-05-14T04:22:27.451Z,96000.50
2023-05-14T04:23:32.250Z,96000.50
2023-05-14T04:24:34.324Z,95997.75
2023-05-14T04:25:38.981Z,95995.94
2023-05-14T04:26:41.063Z,96000.19
2023-05-14T04:27:45.978Z,95998.22
2023-05-14T04:28:48.070Z,95995.63
2023-05-14T04:29:53.473Z,95997.31
2023-05-14T04:30:58.242Z,95997.38
2023-05-14T04:32:02.991Z,95992.03
2023-05-14T04:33:05.108Z,95996.53
2023-05-14T04:34:09.784Z,95995.09
2023-05-14T04:35:13.069Z,96000.19
2023-05-14T04:36:17.862Z,96000.06
2023-05-14T04:37:19.932Z,95994.03
2023-05-14T04:38:24.693Z,95999.03
2023-05-14T04:39:26.773Z,95987.84
2023-05-14T04:40:31.549Z,95996.59
2023-05-14T04:41:33.616Z,95998.06
2023-05-14T04:42:38.276Z,95998.06
2023-05-14T04:43:40.633Z,95993.78
2023-05-14T04:44:45.258Z,95998.06
2023-05-14T04:45:47.447Z,95997.22
2023-05-14T04:46:54.800Z,96000.66
2023-05-14T04:47:56.920Z,96003.06
2023-05-14T04:49:01.698Z,96001.25
2023-05-14T04:50:04.485Z,95998.75
2023-05-14T04:51:09.273Z,95994.41
2023-05-14T04:52:11.745Z,95997.81
2023-05-14T04:53:16.417Z,95997.00
2023-05-14T04:54:18.592Z,95996.91
2023-05-14T04:55:23.520Z,96000.19
2023-05-14T04:56:26.143Z,95995.75
2023-05-14T04:57:30.816Z,96000.94
2023-05-14T04:58:34.788Z,96000.09
2023-05-14T04:59:39.930Z,95994.69
2023-05-14T05:00:42.220Z,95996.38
2023-05-14T05:01:47.076Z,95999.66
2023-05-14T05:02:51.772Z,95993.63
2023-05-14T05:03:57.956Z,95998.63
2023-05-14T05:05:00.117Z,95996.66
2023-05-14T05:06:04.947Z,95994.00
2023-05-14T05:07:07.131Z,95990.47
2023-05-14T05:08:11.779Z,95995.50
2023-05-14T05:09:14.355Z,95989.63
2023-05-14T05:10:19.033Z,95999.84
2023-05-14T05:11:21.508Z,95992.06
2023-05-14T05:12:26.288Z,95989.31
2023-05-14T05:13:28.453Z,95993.59
2023-05-14T05:14:33.195Z,95995.44
2023-05-14T05:15:35.465Z,95995.81
2023-05-14T05:16:40.140Z,95993.16
2023-05-14T05:17:42.313Z,95989.47
2023-05-14T05:18:50.206Z,95992.84
2023-05-14T05:19:52.972Z,95992.69
2023-05-14T05:20:57.638Z,95994.34
2023-05-14T05:22:00.520Z,95995.09
2023-05-14T05:23:05.261Z,95999.19
2023-05-14T05:24:07.833Z,95997.31
2023-05-14T05:25:13.143Z,95990.19
2023-05-14T05:26:15.214Z,95996.88
2023-05-14T05:27:21.224Z,95988.03
2023-05-14T05:28:23.256Z,95985.03
2023-05-14T05:29:28.075Z,95992.72
2023-05-14T05:30:30.460Z,95986.47
2023-05-14T05:31:35.405Z,95990.84
2023-05-14T05:32:38.041Z,95987.06
2023-05-14T05:33:42.983Z,95991.16
2023-05-14T05:34:47.683Z,95983.03
2023-05-14T05:35:52.664Z,95982.81
2023-05-14T05:36:54.743Z,95987.00
2023-05-14T05:38:01.703Z,95978.88
2023-05-14T05:39:04.247Z,95989.06
2023-05-14T05:40:10.822Z,95988.84
2023-05-14T05:41:13.026Z,95979.34
2023-05-14T05:42:17.697Z,95975.69
2023-05-14T05:43:19.819Z,95983.31
2023-05-14T05:44:25.184Z,95981.53
2023-05-14T05:45:27.308Z,95985.63
2023-05-14T05:46:31.989Z,95976.81
2023-05-14T05:47:34.149Z,95975.66
2023-05-14T05:48:38.958Z,95977.34
2023-05-14T05:49:41.005Z,95978.66
2023-05-14T05:50:52.069Z,95981.84
2023-05-14T05:51:54.173Z,95973.78
2023-05-14T05:52:59.390Z,95975.97
2023-05-14T05:54:01.507Z,95969.41
2023-05-14T05:55:06.932Z,95969.72
2023-05-14T05:56:09.221Z,95969.19
2023-05-14T05:57:13.938Z,95972.38
2023-05-14T05:58:17.396Z,95969.69
2023-05-14T05:59:22.231Z,95963.94
2023-05-14T06:00:24.958Z,95966.84
2023-05-14T06:01:29.980Z,95966.56
2023-05-14T06:02:32.210Z,95958.88
2023-05-14T06:03:37.004Z,95960.91
2023-05-14T06:04:39.071Z,95956.19
2023-05-14T06:05:43.974Z,95957.28
2023-05-14T06:06:49.002Z,95953.22
2023-05-14T06:07:53.845Z,95959.69
2023-05-14T06:08:55.877Z,95950.59
2023-05-14T06:10:00.546Z,95952.06
2023-05-14T06:11:02.683Z,95952.34
2023-05-14T06:12:08.482Z,95948.59
2023-05-14T06:13:10.944Z,95951.94
2023-05-14T06:14:15.642Z,95949.06
2023-05-14T06:15:17.834Z,95957.59
2023-05-14T06:16:22.597Z,95950.09
2023-05-14T06:17:25.132Z,95963.00
2023-05-14T06:18:29.868Z,95955.66
2023-05-14T06:19:31.975Z,95958.09
2023-05-14T06:20:36.940Z,95955.00
2023-05-14T06:21:39.080Z,95959.34
2023-05-14T06:22:46.360Z,95957.75
2023-05-14T06:23:51.267Z,95957.09
2023-05-14T06:24:55.997Z,95959.75
2023-05-14T06:25:58.049Z,95958.53
2023-05-14T06:27:02.761Z,95951.78
2023-05-14T06:28:05.215Z,95952.03
2023-05-14T06:29:09.934Z,95953.19
2023-05-14T06:30:13.640Z,95952.88
2023-05-14T06:31:18.326Z,95951.44
2023-05-14T06:32:20.866Z,95949.38
2023-05-14T06:33:31.087Z,95956.66
2023-05-14T06:34:33.654Z,95959.72
2023-05-14T06:35:38.434Z,95950.72
2023-05-14T06:36:40.534Z,95944.38
2023-05-14T06:37:47.967Z,95946.03
2023-05-14T06:38:50.102Z,95956.19
2023-05-14T06:39:57.016Z,95952.31
2023-05-14T06:40:59.990Z,95946.06
2023-05-14T06:42:04.789Z,95941.47
2023-05-14T06:43:06.899Z,95944.81
2023-05-14T06:44:12.048Z,95944.81
2023-05-14T06:45:14.152Z,95942.81
2023-05-14T06:46:18.893Z,95941.56
2023-05-14T06:47:21.001Z,95936.88
2023-05-14T06:48:27.956Z,95943.75
2023-05-14T06:49:30.330Z,95946.66
2023-05-14T06:50:34.957Z,95947.59
2023-05-14T06:51:37.008Z,95950.44
2023-05-14T06:52:46.114Z,95945.28
2023-05-14T06:53:51.561Z,95948.94
2023-05-14T06:54:56.286Z,95942.00
2023-05-14T06:55:58.408Z,95937.38
2023-05-14T06:57:03.185Z,95924.53
2023-05-14T06:58:06.857Z,95936.91
2023-05-14T06:59:11.562Z,95934.44
2023-05-14T07:00:15.838Z,95930.78
2023-05-14T07:01:20.578Z,95919.28
2023-05-14T07:02:22.714Z,95921.56
2023-05-14T07:03:27.497Z,95920.63
2023-05-14T07:04:29.616Z,95926.94
2023-05-14T07:05:34.432Z,95925.56
2023-05-14T07:06:36.637Z,95923.78
2023-05-14T07:07:56.598Z,95926.66
2023-05-14T07:09:01.950Z,95933.31
2023-05-14T07:10:15.669Z,95933.31
2023-05-14T07:11:20.568Z,95929.31
2023-05-14T07:12:22.686Z,95927.41
2023-05-14T07:13:28.876Z,95928.13
2023-05-14T07:14:31.166Z,95924.56
2023-05-14T07:15:35.909Z,95925.06
2023-05-14T07:16:38.119Z,95935.97
2023-05-14T07:17:43.164Z,95931.75
2023-05-14T07:18:46.105Z,95942.25
2023-05-14T07:19:51.288Z,95933.69
2023-05-14T07:20:53.438Z,95931.09
2023-05-14T07:21:58.203Z,95932.66
2023-05-14T07:23:00.286Z,95930.91
2023-05-14T07:24:08.860Z,95917.09
2023-05-14T07:25:11.235Z,95919.13
2023-05-14T07:26:16.025Z,95919.56
2023-05-14T07:27:18.245Z,95911.50
2023-05-14T07:28:22.914Z,95910.88
2023-05-14T07:29:25.522Z,95918.97
2023-05-14T07:30:30.210Z,95915.44
2023-05-14T07:31:32.430Z,95912.19
2023-05-14T07:32:37.195Z,95907.44
2023-05-14T07:33:39.338Z,95912.31
2023-05-14T07:34:44.014Z,95909.72
2023-05-14T07:35:46.556Z,95905.28
2023-05-14T07:36:51.432Z,95899.47
2023-05-14T07:37:53.616Z,95895.38
2023-05-14T07:38:58.470Z,95890.38
2023-05-14T07:40:03.331Z,95893.22
2023-05-14T07:41:08.372Z,95902.41
2023-05-14T07:42:10.498Z,95903.91
2023-05-14T07:43:15.343Z,95892.16
2023-05-14T07:44:17.487Z,95886.31
2023-05-14T07:45:22.581Z,95887.94
2023-05-14T07:46:25.974Z,95894.75
2023-05-14T07:47:30.763Z,95893.97
2023-05-14T07:48:33.030Z,95900.25
2023-05-14T07:49:37.839Z,95890.41
2023-05-14T07:50:39.943Z,95877.75
2023-05-14T07:51:44.678Z,95883.31
2023-05-14T07:52:46.848Z,95877.44
2023-05-14T07:53:51.683Z,95879.41
2023-05-14T07:54:53.805Z,95873.22
2023-05-14T07:56:01.789Z,95869.81
2023-05-14T07:57:04.176Z,95855.25
2023-05-14T07:58:08.875Z,95865.97
2023-05-14T07:59:10.969Z,95860.19
2023-05-14T08:00:17.039Z,95859.78
2023-05-14T08:01:19.293Z,95873.22
2023-05-14T08:02:24.002Z,95872.63
2023-05-14T08:03:26.354Z,95865.03
2023-05-14T08:04:31.343Z,95870.66
2023-05-14T08:05:33.514Z,95845.47
2023-05-14T08:06:38.121Z,95852.00
2023-05-14T08:07:40.237Z,95854.97
2023-05-14T08:08:44.899Z,95846.16
2023-05-14T08:09:47.036Z,95837.47
2023-05-14T08:10:51.715Z,95843.81
2023-05-14T08:12:03.901Z,95848.31
2023-05-14T08:13:06.105Z,95856.03
2023-05-14T08:14:10.856Z,95839.72
2023-05-14T08:15:12.968Z,95830.16
2023-05-14T08:16:17.671Z,95810.94
2023-05-14T08:17:19.794Z,95816.44
2023-05-14T08:18:24.455Z,95836.66
2023-05-14T08:19:27.609Z,95844.97
2023-05-14T08:20:32.759Z,95837.34
2023-05-14T08:21:36.066Z,95827.63
2023-05-14T08:22:40.846Z,95825.25
2023-05-14T08:23:42.927Z,95815.88
2023-05-14T08:24:47.741Z,95819.47
2023-05-14T08:25:52.428Z,95812.97
2023-05-14T08:26:57.362Z,95820.81
2023-05-14T08:28:02.409Z,95807.78
2023-05-14T08:29:04.518Z,95823.97
2023-05-14T08:30:12.408Z,95813.03
2023-05-14T08:31:14.871Z,95795.56
2023-05-14T08:32:23.680Z,95798.00
2023-05-14T08:33:26.117Z,95803.19
2023-05-14T08:34:30.926Z,95831.41
2023-05-14T08:35:33.028Z,95831.25
2023-05-14T08:36:37.747Z,95811.41
2023-05-14T08:37:39.950Z,95810.97
2023-05-14T08:38:45.609Z,95815.25
2023-05-14T08:39:47.902Z,95814.69
2023-05-14T08:40:59.932Z,95803.72
2023-05-14T08:42:07.155Z,95810.97
2023-05-14T08:43:14.259Z,95828.69
2023-05-14T08:44:22.685Z,95831.09
2023-05-14T08:45:29.283Z,95828.06
2023-05-14T08:46:35.363Z,95831.25
2023-05-14T08:47:38.092Z,95833.88
2023-05-14T08:48:45.183Z,95826.56
2023-05-14T08:49:53.010Z,95848.44
2023-05-14T08:50:58.002Z,95857.72
2023-05-14T08:52:00.908Z,95847.59
2023-05-14T08:53:05.622Z,95837.50
2023-05-14T08:54:08.368Z,95829.50
2023-05-14T08:55:15.528Z,95837.09
2023-05-14T08:56:18.509Z,95844.16
2023-05-14T08:57:28.035Z,95819.81
2023-05-14T08:58:32.686Z,95828.38
2023-05-14T08:59:34.862Z,95838.16
2023-05-14T09:00:39.554Z,95838.03
2023-05-14T09:01:46.715Z,95850.03
2023-05-14T09:02:52.115Z,95842.09
2023-05-14T09:03:54.925Z,95841.56
2023-05-14T09:05:00.985Z,95845.88
2023-05-14T09:06:04.699Z,95839.63
2023-05-14T09:07:10.366Z,95839.59
2023-05-14T09:08:12.737Z,95850.69
2023-05-14T09:09:17.527Z,95839.38
2023-05-14T09:10:23.091Z,95826.06
2023-05-14T09:11:25.335Z,95828.84
2023-05-14T09:12:32.747Z,95846.03
2023-05-14T09:13:38.380Z,95848.22
2023-05-14T09:14:43.103Z,95836.69
2023-05-14T09:15:46.467Z,95843.25
2023-05-14T09:17:22.636Z,95831.66
2023-05-14T09:18:28.063Z,95830.28
2023-05-14T09:19:30.258Z,95818.41
2023-05-14T09:20:35.591Z,95822.59
2023-05-14T09:21:37.924Z,95801.53
2023-05-14T09:22:43.081Z,95811.06
2023-05-14T09:23:45.840Z,95802.88
2023-05-14T09:25:05.765Z,95793.59
2023-05-14T09:26:08.168Z,95797.53
2023-05-14T09:27:18.676Z,95774.94
2023-05-14T09:28:24.615Z,95782.28
2023-05-14T09:29:29.594Z,95771.00
2023-05-14T09:30:31.832Z,95753.78
2023-05-14T09:31:37.587Z,95753.59
2023-05-14T09:32:40.865Z,95769.41
2023-05-14T09:33:46.529Z,95766.53
2023-05-14T09:34:49.093Z,95754.09
2023-05-14T09:35:53.765Z,95759.31
2023-05-14T09:36:57.646Z,95759.53
2023-05-14T09:38:02.366Z,95752.69
2023-05-14T09:39:05.380Z,95742.28
2023-05-14T09:40:11.073Z,95758.41
2023-05-14T09:41:16.542Z,95759.84
2023-05-14T09:42:18.600Z,95749.50
2023-05-14T09:43:26.251Z,95744.03
2023-05-14T09:44:28.827Z,95742.63
2023-05-14T09:45:33.519Z,95757.63
2023-05-14T09:46:35.572Z,95757.22
2023-05-14T09:47:41.707Z,95747.19
2023-05-14T09:48:43.999Z,95733.25
2023-05-14T09:49:51.486Z,95740.97
2023-05-14T09:50:56.158Z,95737.94
2023-05-14T09:51:58.761Z,95741.34
2023-05-14T09:53:03.569Z,95714.06
2023-05-14T09:54:06.355Z,95711.81
2023-05-14T09:55:12.009Z,95694.44
2023-05-14T09:56:15.654Z,95698.09
2023-05-14T09:57:20.323Z,95681.31
2023-05-14T09:58:24.951Z,95680.97
2023-05-14T09:59:29.641Z,95664.63
2023-05-14T10:00:32.495Z,95661.19
2023-05-14T10:01:38.108Z,95679.00
2023-05-14T10:02:41.710Z,95672.72
2023-05-14T10:03:46.663Z,95673.69
2023-05-14T10:04:49.437Z,95673.69
2023-05-14T10:05:54.516Z,95688.00
2023-05-14T10:06:57.203Z,95691.00
2023-05-14T10:08:04.594Z,95671.81
2023-05-14T10:09:12.621Z,95669.22
2023-05-14T10:10:22.047Z,95680.16
2023-05-14T10:11:26.189Z,95683.81
2023-05-14T10:12:34.177Z,95655.72
2023-05-14T10:13:48.405Z,95650.22
2023-05-14T10:14:53.986Z,95692.53
2023-05-14T10:16:04.440Z,95651.53
2023-05-14T10:17:08.053Z,95624.69
2023-05-14T10:18:15.142Z,95622.63
2023-05-14T10:19:21.133Z,95654.94
2023-05-14T10:20:28.775Z,95631.19
2023-05-14T10:21:34.348Z,95633.94
2023-05-14T10:22:39.012Z,95610.88
2023-05-14T10:23:47.087Z,95603.84
2023-05-14T10:24:52.657Z,95600.22
2023-05-14T10:25:57.648Z,95605.81
2023-05-14T10:27:00.141Z,95586.22
2023-05-14T10:28:06.257Z,95606.38
2023-05-14T10:29:11.596Z,95610.03
2023-05-14T10:30:16.592Z,95599.03
2023-05-14T10:31:18.719Z,95595.41
2023-05-14T10:32:25.887Z,95616.38
2023-05-14T10:33:28.118Z,95612.38
2023-05-14T10:34:44.461Z,95639.28
2023-05-14T10:35:58.258Z,95643.63
2023-05-14T10:37:04.228Z,95681.00
2023-05-14T10:38:09.109Z,95665.47
2023-05-14T10:39:14.179Z,95680.50
2023-05-14T10:40:18.684Z,95661.78
2023-05-14T10:41:23.417Z,95680.63
2023-05-14T10:42:27.605Z,95679.50
2023-05-14T10:43:33.901Z,95701.03
2023-05-14T10:44:48.482Z,95678.59
2023-05-14T10:45:54.353Z,95665.56
2023-05-14T10:46:57.022Z,95661.13
2023-05-14T10:48:02.025Z,95670.03
2023-05-14T10:49:04.111Z,95678.00
2023-05-14T10:50:11.376Z,95666.00
2023-05-14T10:51:17.656Z,95672.47
2023-05-14T10:52:20.871Z,95652.88
2023-05-14T10:53:35.203Z,95674.88
2023-05-14T10:54:37.485Z,95677.66
2023-05-14T10:55:42.576Z,95670.75
2023-05-14T10:56:46.539Z,95657.19
2023-05-14T10:57:52.283Z,95672.72
2023-05-14T10:58:58.900Z,95638.69
2023-05-14T11:00:13.528Z,95661.19
2023-05-14T11:01:16.043Z,95656.59
2023-05-14T11:02:29.004Z,95668.31
2023-05-14T11:03:32.013Z,95656.66
2023-05-14T11:04:36.880Z,95667.59
2023-05-14T11:05:44.011Z,95680.75
2023-05-14T11:06:47.594Z,95682.22
2023-05-14T11:07:54.061Z,95666.88
2023-05-14T11:08:57.020Z,95682.63
2023-05-14T11:10:04.716Z,95647.69
2023-05-14T11:11:07.263Z,95629.63
2023-05-14T11:12:12.487Z,95650.78
2023-05-14T11:13:18.888Z,95659.78
2023-05-14T11:14:21.890Z,95635.84
2023-05-14T11:15:30.123Z,95650.59
2023-05-14T11:16:32.316Z,95598.06
2023-05-14T11:17:39.264Z,95616.19
2023-05-14T11:18:42.114Z,95632.66
2023-05-14T11:19:48.818Z,95652.19
2023-05-14T11:20:54.736Z,95639.28
2023-05-14T11:21:56.823Z,95652.84
2023-05-14T11:23:01.541Z,95646.25
2023-05-14T11:24:05.639Z,95651.31
2023-05-14T11:25:15.027Z,95658.03
2023-05-14T11:26:19.391Z,95673.88
2023-05-14T11:27:26.560Z,95705.34
2023-05-14T11:28:29.936Z,95680.63
2023-05-14T11:29:34.632Z,95669.25
2023-05-14T11:30:41.961Z,95677.63
2023-05-14T11:31:44.819Z,95701.50
2023-05-14T11:32:50.766Z,95675.91
2023-05-14T11:33:53.403Z,95663.88
2023-05-14T11:34:58.089Z,95651.44
2023-05-14T11:36:00.153Z,95669.50
2023-05-14T11:37:07.220Z,95664.81
2023-05-14T11:38:14.794Z,95659.06
2023-05-14T11:39:21.729Z,95659.63
2023-05-14T11:40:24.251Z,95666.94
2023-05-14T11:41:31.228Z,95655.47
2023-05-14T11:42:33.362Z,95641.25
2023-05-14T11:43:39.343Z,95657.78
2023-05-14T11:44:42.516Z,95664.78
2023-05-14T11:45:52.774Z,95627.78
2023-05-14T11:46:56.065Z,95632.09
2023-05-14T11:48:00.824Z,95629.19
2023-05-14T11:49:04.635Z,95651.78
2023-05-14T11:50:11.352Z,95659.75
2023-05-14T11:51:13.492Z,95639.50
2023-05-14T11:52:19.859Z,95648.16
2023-05-14T11:53:26.275Z,95633.88
2023-05-14T11:54:31.512Z,95646.81
2023-05-14T11:55:37.428Z,95650.13
2023-05-14T11:56:39.671Z,95654.09
2023-05-14T11:57:44.424Z,95645.56
2023-05-14T11:58:49.072Z,95616.84
2023-05-14T12:00:00.286Z,95595.25
2023-05-14T12:01:05.315Z,95558.06
2023-05-14T12:02:13.673Z,95579.53
2023-05-14T12:03:16.106Z,95569.34
2023-05-14T12:04:22.824Z,95613.13
2023-05-14T12:05:25.581Z,95588.09
2023-05-14T12:06:34.081Z,95557.06
2023-05-14T12:07:36.506Z,95567.22
2023-05-14T12:08:41.221Z,95579.97
2023-05-14T12:09:49.870Z,95557.38
2023-05-14T12:10:53.482Z,95551.13
2023-05-14T12:11:58.145Z,95563.97
2023-05-14T12:13:00.246Z,95569.38
2023-05-14T12:14:04.904Z,95563.41
2023-05-14T12:15:11.884Z,95522.63
2023-05-14T12:16:19.374Z,95528.06
2023-05-14T12:17:25.907Z,95551.06
2023-05-14T12:18:32.537Z,95516.53
2023-05-14T12:19:58.798Z,95542.59
2023-05-14T12:21:12.364Z,95537.94
2023-05-14T12:22:20.837Z,95534.47
2023-05-14T12:23:27.710Z,95526.41
2023-05-14T12:24:33.656Z,95524.28
2023-05-14T12:25:40.022Z,95511.50
2023-05-14T12:26:46.720Z,95505.13
2023-05-14T12:27:52.361Z,95493.06
2023-05-14T12:29:01.239Z,95498.47
2023-05-14T12:31:19.916Z,95511.72
2023-05-14T12:32:32.665Z,95515.97
2023-05-14T12:33:36.438Z,95503.84
2023-05-14T12:34:42.683Z,95508.94
2023-05-14T12:35:46.259Z,95496.06
2023-05-14T12:36:52.454Z,95506.28
2023-05-14T12:37:54.546Z,95523.19
2023-05-14T12:39:02.014Z,95519.25
2023-05-14T12:40:21.295Z,95509.63
2023-05-14T12:41:25.815Z,95479.75